createdAt,value
2023-08-14T00:01:05.560Z,0.80
2023-08-14T00:03:33.251Z,0.90
2023-08-14T00:06:00.785Z,1.08
2023-08-14T00:08:27.792Z,0.93
2023-08-14T00:10:55.797Z,1.00
2023-08-14T00:13:23.730Z,1.00
2023-08-14T00:15:51.077Z,1.20
2023-08-14T00:18:18.517Z,0.90
2023-08-14T00:20:47.620Z,1.13
2023-08-14T00:23:15.029Z,0.95
2023-08-14T00:25:41.969Z,1.10
2023-08-14T00:28:08.930Z,1.00
2023-08-14T00:30:35.898Z,1.00
2023-08-14T00:33:02.913Z,0.95
2023-08-14T00:35:29.877Z,1.10
2023-08-14T00:37:56.918Z,0.80
2023-08-14T00:40:24.008Z,0.88
2023-08-14T00:42:51.014Z,1.00
2023-08-14T00:45:18.888Z,0.85
2023-08-14T00:47:47.477Z,1.13
2023-08-14T00:50:15.845Z,1.02
2023-08-14T00:52:45.669Z,0.77
2023-08-14T00:55:16.557Z,1.00
2023-08-14T00:57:44.018Z,0.90
2023-08-14T01:00:12.807Z,0.80
2023-08-14T01:02:43.040Z,1.30
2023-08-14T01:05:10.099Z,1.15
2023-08-14T01:07:37.831Z,0.93
2023-08-14T01:10:05.959Z,1.00
2023-08-14T01:12:39.489Z,0.95
2023-08-14T01:15:17.250Z,1.05
2023-08-14T01:17:59.049Z,0.77
2023-08-14T01:20:29.013Z,0.80
2023-08-14T01:23:15.251Z,0.60
2023-08-14T01:25:43.232Z,1.13
2023-08-14T01:28:11.130Z,0.85
2023-08-14T01:30:38.743Z,1.02
2023-08-14T01:33:05.882Z,0.82
2023-08-14T01:35:47.244Z,0.93
2023-08-14T01:38:22.570Z,1.05
2023-08-14T01:41:13.215Z,1.10
2023-08-14T01:43:46.148Z,0.88
2023-08-14T01:46:15.859Z,0.88
2023-08-14T01:48:44.701Z,0.90
2023-08-14T01:51:12.488Z,0.85
2023-08-14T01:53:42.386Z,1.75
2023-08-14T01:56:09.429Z,1.10
2023-08-14T01:58:36.576Z,0.90
2023-08-14T02:01:03.558Z,1.00
2023-08-14T02:03:31.640Z,1.10
2023-08-14T02:05:58.693Z,0.93
2023-08-14T02:08:25.746Z,1.00
2023-08-14T02:10:52.739Z,1.20
2023-08-14T02:13:19.777Z,1.20
2023-08-14T02:15:47.291Z,1.10
2023-08-14T02:18:15.391Z,1.20
2023-08-14T02:20:51.355Z,1.13
2023-08-14T02:23:18.350Z,1.45
2023-08-14T02:25:45.318Z,1.30
2023-08-14T02:28:12.710Z,1.08
2023-08-14T02:30:42.679Z,1.10
2023-08-14T02:33:10.560Z,1.50
2023-08-14T02:35:37.671Z,0.90
2023-08-14T02:38:08.590Z,1.13
2023-08-14T02:40:35.704Z,1.05
2023-08-14T02:43:04.510Z,1.10
2023-08-14T02:45:31.580Z,1.20
2023-08-14T02:47:58.621Z,1.10
2023-08-14T02:50:26.097Z,1.38
2023-08-14T02:52:53.079Z,1.10
2023-08-14T02:55:20.223Z,1.08
2023-08-14T02:57:47.229Z,1.05
2023-08-14T03:00:14.669Z,1.27
2023-08-14T03:02:41.917Z,1.10
2023-08-14T03:05:08.988Z,1.30
2023-08-14T03:07:35.970Z,1.10
2023-08-14T03:10:03.144Z,0.90
2023-08-14T03:12:30.123Z,1.25
2023-08-14T03:14:57.088Z,1.02
2023-08-14T03:17:24.418Z,1.48
2023-08-14T03:19:51.560Z,1.30
2023-08-14T03:22:18.870Z,1.10
2023-08-14T03:24:46.074Z,1.50
2023-08-14T03:27:13.097Z,1.20
2023-08-14T03:29:40.027Z,1.73
2023-08-14T03:32:07.215Z,1.52
2023-08-14T03:34:34.171Z,1.10
2023-08-14T03:37:01.392Z,1.02
2023-08-14T03:39:28.373Z,1.20
2023-08-14T03:41:55.326Z,1.40
2023-08-14T03:44:22.324Z,1.02
2023-08-14T03:46:49.378Z,1.30
2023-08-14T03:49:17.153Z,1.33
2023-08-14T03:51:44.137Z,1.00
2023-08-14T03:54:11.211Z,0.95
2023-08-14T03:56:38.479Z,1.40
2023-08-14T03:59:06.971Z,0.88
2023-08-14T04:01:34.021Z,1.00
2023-08-14T04:04:01.332Z,1.25
2023-08-14T04:06:28.389Z,1.50
2023-08-14T04:08:55.390Z,1.88
2023-08-14T04:11:22.648Z,1.30
2023-08-14T04:13:49.615Z,1.40
2023-08-14T04:16:16.698Z,1.60
2023-08-14T04:18:44.194Z,1.25
2023-08-14T04:21:11.200Z,1.50
2023-08-14T04:23:38.222Z,0.98
2023-08-14T04:26:05.192Z,1.52
2023-08-14T04:28:32.138Z,1.23
2023-08-14T04:30:59.346Z,1.50
2023-08-14T04:33:26.402Z,1.30
2023-08-14T04:35:53.412Z,1.20
2023-08-14T04:38:20.385Z,1.13
2023-08-14T04:40:47.562Z,1.00
2023-08-14T04:43:14.604Z,1.42
2023-08-14T04:45:41.746Z,1.35
2023-08-14T04:48:08.752Z,1.08
2023-08-14T04:50:35.727Z,1.40
2023-08-14T04:53:05.355Z,1.30
2023-08-14T04:55:33.460Z,1.85
2023-08-14T04:58:00.400Z,1.10
2023-08-14T05:00:27.621Z,1.60
2023-08-14T05:02:54.949Z,1.77
2023-08-14T05:05:22.221Z,1.27
2023-08-14T05:07:49.362Z,1.35
2023-08-14T05:10:16.630Z,1.40
2023-08-14T05:12:43.784Z,1.60
2023-08-14T05:15:10.907Z,1.75
2023-08-14T05:17:37.918Z,1.17
2023-08-14T05:20:05.513Z,1.40
2023-08-14T05:22:32.571Z,1.40
2023-08-14T05:25:00.256Z,1.75
2023-08-14T05:27:27.425Z,1.42
2023-08-14T05:29:54.412Z,1.58
2023-08-14T05:32:21.413Z,1.50
2023-08-14T05:34:48.440Z,1.33
2023-08-14T05:37:15.387Z,1.60
2023-08-14T05:39:42.380Z,1.40
2023-08-14T05:42:09.328Z,1.52
2023-08-14T05:44:36.267Z,1.73
2023-08-14T05:47:03.284Z,1.88
2023-08-14T05:49:30.252Z,1.60
2023-08-14T05:51:57.210Z,1.58
2023-08-14T05:54:24.183Z,1.45
2023-08-14T05:56:52.329Z,1.60
2023-08-14T05:59:19.950Z,1.30
2023-08-14T06:01:47.250Z,1.77
2023-08-14T06:04:14.560Z,1.80
2023-08-14T06:06:41.619Z,1.60
2023-08-14T06:09:08.907Z,1.52
2023-08-14T06:11:36.792Z,1.60
2023-08-14T06:14:04.258Z,2.00
2023-08-14T06:16:31.470Z,1.58
2023-08-14T06:18:58.534Z,1.63
2023-08-14T06:21:25.579Z,1.80
2023-08-14T06:23:53.111Z,2.13
2023-08-14T06:26:20.357Z,1.83
2023-08-14T06:28:47.351Z,2.25
2023-08-14T06:31:14.618Z,1.40
2023-08-14T06:33:41.568Z,1.60
2023-08-14T06:36:10.037Z,1.85
2023-08-14T06:38:37.113Z,1.65
2023-08-14T06:41:04.264Z,1.52
2023-08-14T06:43:31.213Z,1.42
2023-08-14T06:45:58.206Z,1.50
2023-08-14T06:48:25.169Z,1.85
2023-08-14T06:50:53.645Z,1.42
2023-08-14T06:53:20.738Z,1.73
2023-08-14T06:55:48.663Z,1.50
2023-08-14T06:58:15.934Z,1.48
2023-08-14T07:00:42.965Z,1.35
2023-08-14T07:03:09.988Z,1.25
2023-08-14T07:05:37.111Z,1.60
2023-08-14T07:08:04.369Z,1.10
2023-08-14T07:10:31.448Z,1.40
2023-08-14T07:12:58.639Z,1.30
2023-08-14T07:15:27.540Z,1.63
2023-08-14T07:17:54.718Z,1.88
2023-08-14T07:20:25.790Z,1.23
2023-08-14T07:22:54.002Z,1.73
2023-08-14T07:25:21.200Z,1.30
2023-08-14T07:27:48.196Z,1.38
2023-08-14T07:30:15.685Z,1.10
2023-08-14T07:32:42.696Z,1.17
2023-08-14T07:35:10.072Z,0.95
2023-08-14T07:37:37.154Z,1.10
2023-08-14T07:40:07.727Z,1.30
2023-08-14T07:42:35.020Z,0.77
2023-08-14T07:45:02.291Z,0.70
2023-08-14T07:47:30.047Z,1.10
2023-08-14T07:49:57.076Z,0.68
2023-08-14T07:52:25.437Z,0.90
2023-08-14T07:54:52.668Z,1.00
2023-08-14T07:57:19.711Z,1.27
2023-08-14T07:59:46.716Z,1.20
2023-08-14T08:02:13.710Z,1.67
2023-08-14T08:04:41.175Z,1.10
2023-08-14T08:07:08.368Z,1.60
2023-08-14T08:09:35.522Z,1.60
2023-08-14T08:12:02.625Z,1.88
2023-08-14T08:14:29.936Z,1.65
2023-08-14T08:16:56.997Z,1.38
2023-08-14T08:19:24.049Z,1.42
2023-08-14T08:21:51.101Z,1.20
2023-08-14T08:24:18.301Z,1.33
2023-08-14T08:26:45.278Z,1.30
2023-08-14T08:29:12.679Z,1.55
2023-08-14T08:31:39.719Z,1.20
2023-08-14T08:34:06.802Z,1.00
2023-08-14T08:36:34.015Z,1.02
2023-08-14T08:39:01.099Z,0.90
2023-08-14T08:41:39.086Z,0.90
2023-08-14T08:44:16.328Z,0.63
2023-08-14T08:46:50.850Z,0.82
2023-08-14T08:49:18.378Z,0.43
2023-08-14T08:51:48.817Z,0.80
2023-08-14T08:54:17.909Z,0.60
2023-08-14T08:56:45.258Z,0.50
2023-08-14T08:59:14.909Z,0.30
2023-08-14T09:01:45.249Z,0.40
2023-08-14T09:04:12.734Z,0.57
2023-08-14T09:06:40.591Z,0.40
2023-08-14T09:09:08.916Z,0.30
2023-08-14T09:11:36.308Z,0.50
2023-08-14T09:14:03.517Z,0.40
2023-08-14T09:16:30.901Z,0.50
2023-08-14T09:18:59.434Z,1.02
2023-08-14T09:21:27.586Z,0.50
2023-08-14T09:23:56.080Z,0.60
2023-08-14T09:26:23.908Z,0.43
2023-08-14T09:28:51.124Z,0.65
2023-08-14T09:31:18.160Z,0.50
2023-08-14T09:33:46.290Z,0.50
2023-08-14T09:36:16.715Z,0.40
2023-08-14T09:38:43.988Z,0.40
2023-08-14T09:41:11.809Z,0.38
2023-08-14T09:43:40.361Z,0.30
2023-08-14T09:46:11.215Z,0.20
2023-08-14T09:48:46.876Z,0.30
2023-08-14T09:51:16.201Z,0.30
2023-08-14T09:53:59.026Z,0.20
2023-08-14T09:56:27.462Z,0.20
2023-08-14T09:58:55.924Z,0.30
2023-08-14T10:01:24.188Z,0.30
2023-08-14T10:03:55.096Z,0.20
2023-08-14T10:06:26.728Z,0.20
2023-08-14T10:09:00.219Z,0.10
2023-08-14T10:11:30.031Z,0.20
2023-08-14T10:14:02.396Z,0.20
2023-08-14T10:16:35.836Z,0.10
2023-08-14T10:19:05.850Z,0.30
2023-08-14T10:21:35.998Z,0.10
2023-08-14T10:24:04.583Z,0.20
2023-08-14T10:26:34.359Z,0.28
2023-08-14T10:29:01.977Z,0.10
2023-08-14T10:31:30.137Z,0.20
2023-08-14T10:33:58.513Z,0.10
2023-08-14T10:36:29.869Z,0.00
2023-08-14T10:39:10.477Z,0.10
2023-08-14T10:41:37.929Z,0.10
2023-08-14T10:44:10.105Z,0.20
2023-08-14T10:46:45.941Z,0.10
2023-08-14T10:49:14.398Z,0.10
2023-08-14T10:51:45.149Z,0.10
2023-08-14T10:54:16.241Z,0.30
2023-08-14T10:56:46.926Z,0.20
2023-08-14T10:59:30.489Z,0.15
2023-08-14T11:02:10.399Z,0.30
2023-08-14T11:05:02.722Z,0.10
2023-08-14T11:07:31.662Z,0.10
2023-08-14T11:10:01.544Z,0.17
2023-08-14T11:12:31.037Z,0.20
2023-08-14T11:14:58.802Z,0.10
2023-08-14T11:17:26.618Z,0.20
2023-08-14T11:19:53.794Z,0.20
2023-08-14T11:22:24.161Z,0.30
2023-08-14T11:24:51.532Z,0.10
2023-08-14T11:27:18.627Z,0.30
2023-08-14T11:29:52.924Z,0.25
2023-08-14T11:32:22.742Z,0.15
2023-08-14T11:34:51.610Z,0.30
2023-08-14T11:37:19.064Z,0.40
2023-08-14T11:39:46.610Z,0.32
2023-08-14T11:42:14.068Z,0.40
2023-08-14T11:44:41.086Z,0.28
2023-08-14T11:47:08.689Z,0.30
2023-08-14T11:49:39.661Z,0.40
2023-08-14T11:52:07.131Z,0.20
2023-08-14T11:54:35.377Z,0.20
2023-08-14T11:57:06.747Z,0.28
2023-08-14T11:59:33.974Z,0.20
2023-08-14T12:02:02.063Z,0.25
2023-08-14T12:04:29.207Z,0.20
2023-08-14T12:06:56.629Z,0.32
2023-08-14T12:09:29.207Z,0.20
2023-08-14T12:11:56.806Z,0.20
2023-08-14T12:14:23.982Z,0.55
2023-08-14T12:16:51.279Z,0.22
2023-08-14T12:19:22.907Z,0.30
2023-08-14T12:22:00.926Z,0.22
2023-08-14T12:24:27.996Z,0.52
2023-08-14T12:26:55.221Z,0.47
2023-08-14T12:29:23.026Z,0.30
2023-08-14T12:31:50.185Z,0.40
2023-08-14T12:34:19.530Z,0.88
2023-08-14T12:36:46.770Z,0.50
2023-08-14T12:39:14.142Z,0.43
2023-08-14T12:41:41.176Z,0.50
2023-08-14T12:44:08.757Z,0.60
2023-08-14T12:46:36.602Z,0.40
2023-08-14T12:49:03.795Z,0.45
2023-08-14T12:51:30.807Z,0.40
2023-08-14T12:53:57.835Z,0.52
2023-08-14T12:56:25.133Z,0.52
2023-08-14T12:58:53.380Z,0.40
2023-08-14T13:01:24.226Z,0.30
2023-08-14T13:03:54.805Z,0.60
2023-08-14T13:06:24.366Z,0.60
2023-08-14T13:08:51.610Z,0.40
2023-08-14T13:11:19.650Z,0.28
2023-08-14T13:13:46.941Z,0.30
2023-08-14T13:16:14.479Z,0.30
2023-08-14T13:18:42.107Z,0.68
2023-08-14T13:21:09.348Z,0.50
2023-08-14T13:23:36.677Z,0.50
2023-08-14T13:26:03.972Z,0.50
2023-08-14T13:28:33.592Z,0.35
2023-08-14T13:31:00.652Z,0.52
2023-08-14T13:33:27.993Z,0.65
2023-08-14T13:35:54.983Z,0.32
2023-08-14T13:38:21.998Z,0.68
2023-08-14T13:40:49.133Z,0.80
2023-08-14T13:43:16.303Z,1.20
2023-08-14T13:45:44.400Z,1.30
2023-08-14T13:48:11.807Z,0.80
2023-08-14T13:50:38.911Z,1.33
2023-08-14T13:53:06.696Z,1.10
2023-08-14T13:55:34.944Z,1.38
2023-08-14T13:58:03.060Z,1.10
2023-08-14T14:00:31.586Z,1.30
2023-08-14T14:02:59.849Z,1.25
2023-08-14T14:05:27.706Z,1.40
2023-08-14T14:07:57.012Z,1.30
2023-08-14T14:10:28.343Z,1.50
2023-08-14T14:13:02.247Z,1.20
2023-08-14T14:15:30.330Z,1.38
2023-08-14T14:17:57.817Z,1.40
2023-08-14T14:20:25.688Z,1.20
2023-08-14T14:22:52.985Z,1.30
2023-08-14T14:25:20.392Z,1.30
2023-08-14T14:27:47.389Z,1.00
2023-08-14T14:30:14.935Z,0.60
2023-08-14T14:32:42.347Z,0.30
2023-08-14T14:35:09.953Z,0.38
2023-08-14T14:37:37.142Z,0.30
2023-08-14T14:40:04.319Z,0.47
2023-08-14T14:42:31.485Z,0.50
2023-08-14T14:44:58.484Z,0.52
2023-08-14T14:47:25.735Z,0.60
2023-08-14T14:49:53.440Z,0.70
2023-08-14T14:52:20.689Z,0.80
2023-08-14T14:54:47.788Z,0.60
2023-08-14T14:57:14.845Z,1.02
2023-08-14T14:59:42.998Z,0.63
2023-08-14T15:02:23.408Z,0.93
2023-08-14T15:04:55.113Z,0.93
2023-08-14T15:07:22.670Z,0.82
2023-08-14T15:09:50.032Z,0.88
2023-08-14T15:12:17.202Z,0.85
2023-08-14T15:14:44.195Z,0.80
2023-08-14T15:17:11.784Z,1.50
2023-08-14T15:19:39.125Z,0.90
2023-08-14T15:22:06.428Z,1.15
2023-08-14T15:24:33.510Z,1.52
2023-08-14T15:27:00.736Z,0.70
2023-08-14T15:29:27.743Z,0.50
2023-08-14T15:31:54.867Z,0.50
2023-08-14T15:34:21.943Z,0.43
2023-08-14T15:36:48.926Z,0.47
2023-08-14T15:39:16.144Z,0.40
2023-08-14T15:41:43.502Z,0.30
2023-08-14T15:44:10.661Z,0.30
2023-08-14T15:46:37.863Z,0.40
2023-08-14T15:49:05.298Z,0.43
2023-08-14T15:51:32.521Z,0.30
2023-08-14T15:53:59.458Z,0.40
2023-08-14T15:56:26.504Z,0.77
2023-08-14T15:58:53.471Z,0.40
2023-08-14T16:01:21.262Z,0.50
2023-08-14T16:03:48.374Z,0.40
2023-08-14T16:06:15.496Z,0.45
2023-08-14T16:08:42.686Z,0.55
2023-08-14T16:11:09.643Z,0.50
2023-08-14T16:13:36.879Z,0.43
2023-08-14T16:16:04.034Z,0.30
2023-08-14T16:18:31.792Z,0.70
2023-08-14T16:21:00.481Z,0.60
2023-08-14T16:23:27.684Z,0.55
2023-08-14T16:25:54.699Z,0.90
2023-08-14T16:28:21.994Z,0.60
2023-08-14T16:30:50.142Z,0.50
2023-08-14T16:33:17.194Z,1.00
2023-08-14T16:35:44.238Z,1.02
2023-08-14T16:38:11.323Z,0.98
2023-08-14T16:40:45.216Z,0.80
2023-08-14T16:43:12.918Z,0.80
2023-08-14T16:45:40.885Z,0.75
2023-08-14T16:48:08.080Z,1.08
2023-08-14T16:50:38.565Z,0.98
2023-08-14T16:53:06.490Z,1.17
2023-08-14T16:55:34.751Z,1.13
2023-08-14T16:58:01.942Z,1.20
2023-08-14T17:00:29.160Z,1.45
2023-08-14T17:02:58.033Z,1.33
2023-08-14T17:05:25.159Z,1.10
2023-08-14T17:07:52.671Z,1.63
2023-08-14T17:10:19.748Z,1.50
2023-08-14T17:12:46.975Z,1.55
2023-08-14T17:15:14.108Z,1.42
2023-08-14T17:17:41.406Z,1.30
2023-08-14T17:20:09.148Z,1.20
2023-08-14T17:22:37.466Z,1.50
2023-08-14T17:25:04.972Z,1.10
2023-08-14T17:27:31.935Z,1.30
2023-08-14T17:29:59.048Z,0.90
2023-08-14T17:32:26.108Z,1.27
2023-08-14T17:34:53.073Z,1.08
2023-08-14T17:37:20.318Z,1.40
2023-08-14T17:39:47.576Z,1.35
2023-08-14T17:42:14.787Z,1.23
2023-08-14T17:44:42.751Z,1.30
2023-08-14T17:47:09.766Z,1.20
2023-08-14T17:49:36.803Z,1.30
2023-08-14T17:52:04.157Z,1.48
2023-08-14T17:54:31.265Z,1.15
2023-08-14T17:56:58.267Z,1.23
2023-08-14T17:59:25.276Z,0.95
2023-08-14T18:01:52.324Z,1.48
2023-08-14T18:04:19.320Z,1.20
2023-08-14T18:06:46.489Z,1.00
2023-08-14T18:09:16.147Z,1.30
2023-08-14T18:11:43.110Z,1.30
2023-08-14T18:14:10.064Z,1.67
2023-08-14T18:16:37.164Z,1.60
2023-08-14T18:19:23.123Z,1.33
2023-08-14T18:21:51.514Z,1.42
2023-08-14T18:24:18.628Z,1.73
2023-08-14T18:26:45.587Z,1.83
2023-08-14T18:29:12.615Z,1.50
2023-08-14T18:31:39.796Z,1.77
2023-08-14T18:34:07.048Z,1.70
2023-08-14T18:36:35.013Z,1.80
2023-08-14T18:39:01.956Z,2.20
2023-08-14T18:41:29.109Z,1.40
2023-08-14T18:43:56.371Z,1.85
2023-08-14T18:46:23.475Z,2.08
2023-08-14T18:48:50.506Z,1.88
2023-08-14T18:51:17.481Z,1.90
2023-08-14T18:53:45.315Z,1.90
2023-08-14T18:56:12.350Z,2.05
2023-08-14T18:58:39.324Z,2.05
2023-08-14T19:01:06.515Z,2.95
2023-08-14T19:03:33.559Z,2.80
2023-08-14T19:06:00.796Z,2.40
2023-08-14T19:08:27.722Z,2.33
2023-08-14T19:10:54.933Z,2.15
2023-08-14T19:13:22.155Z,3.13
2023-08-14T19:15:50.311Z,2.25
2023-08-14T19:18:17.720Z,2.15
2023-08-14T19:20:45.195Z,2.30
2023-08-14T19:23:12.256Z,2.22
2023-08-14T19:25:39.364Z,2.58
2023-08-14T19:28:19.525Z,1.77
2023-08-14T19:30:49.194Z,1.90
2023-08-14T19:33:16.502Z,2.17
2023-08-14T19:35:46.476Z,2.40
2023-08-14T19:38:13.505Z,2.58
2023-08-14T19:40:40.554Z,1.90
2023-08-14T19:43:07.782Z,2.35
2023-08-14T19:45:36.718Z,2.20
2023-08-14T19:48:04.659Z,2.85
2023-08-14T19:50:32.269Z,2.08
2023-08-14T19:53:00.308Z,2.58
2023-08-14T19:55:27.662Z,2.42
2023-08-14T19:57:54.639Z,2.40
2023-08-14T20:00:21.647Z,2.22
2023-08-14T20:02:53.970Z,2.08
2023-08-14T20:05:21.354Z,2.38
2023-08-14T20:07:48.320Z,2.03
2023-08-14T20:10:15.385Z,1.90
2023-08-14T20:12:42.365Z,1.73
2023-08-14T20:15:10.219Z,2.50
2023-08-14T20:17:38.136Z,2.05
2023-08-14T20:20:08.991Z,1.63
2023-08-14T20:22:36.009Z,1.70
2023-08-14T20:25:03.155Z,2.00
2023-08-14T20:27:30.213Z,2.08
2023-08-14T20:29:57.362Z,2.13
2023-08-14T20:32:24.299Z,2.95
2023-08-14T20:34:51.469Z,2.33
2023-08-14T20:37:18.676Z,2.20
2023-08-14T20:39:47.212Z,2.58
2023-08-14T20:42:14.352Z,1.38
2023-08-14T20:44:41.325Z,2.20
2023-08-14T20:47:08.967Z,2.03
2023-08-14T20:49:36.075Z,2.25
2023-08-14T20:52:03.189Z,2.53
2023-08-14T20:54:30.112Z,1.98
2023-08-14T20:56:58.051Z,2.20
2023-08-14T20:59:25.190Z,1.70
2023-08-14T21:01:53.227Z,1.70
2023-08-14T21:04:20.281Z,1.92
2023-08-14T21:06:47.493Z,2.47
2023-08-14T21:09:14.443Z,1.60
2023-08-14T21:11:42.409Z,2.45
2023-08-14T21:14:09.317Z,2.92
2023-08-14T21:16:36.456Z,3.00
2023-08-14T21:19:03.635Z,1.70
2023-08-14T21:21:30.602Z,1.73
2023-08-14T21:23:57.514Z,2.28
2023-08-14T21:26:24.481Z,2.03
2023-08-14T21:28:51.441Z,1.80
2023-08-14T21:31:18.455Z,2.45
2023-08-14T21:33:45.388Z,1.95
2023-08-14T21:36:12.381Z,3.58
2023-08-14T21:38:39.524Z,3.60
2023-08-14T21:41:06.488Z,3.58
2023-08-14T21:43:34.193Z,3.40
2023-08-14T21:46:01.165Z,3.10
2023-08-14T21:48:28.726Z,3.13
2023-08-14T21:50:55.729Z,2.88
2023-08-14T21:53:23.741Z,3.78
2023-08-14T21:55:50.845Z,3.10
2023-08-14T21:58:17.974Z,2.88
2023-08-14T22:00:45.274Z,3.13
2023-08-14T22:03:12.206Z,3.00
2023-08-14T22:05:39.211Z,3.60
2023-08-14T22:08:06.401Z,3.40
2023-08-14T22:10:33.428Z,3.22
2023-08-14T22:13:00.402Z,3.50
2023-08-14T22:15:40.695Z,3.70
2023-08-14T22:18:13.568Z,3.40
2023-08-14T22:20:41.018Z,3.05
2023-08-14T22:23:07.960Z,2.80
2023-08-14T22:25:34.962Z,3.13
2023-08-14T22:28:01.905Z,2.90
2023-08-14T22:30:28.910Z,3.25
2023-08-14T22:32:57.079Z,3.70
2023-08-14T22:35:24.312Z,3.10
2023-08-14T22:37:51.352Z,2.88
2023-08-14T22:40:18.409Z,2.95
2023-08-14T22:42:45.325Z,3.38
2023-08-14T22:45:12.466Z,3.25
2023-08-14T22:47:39.475Z,3.42
2023-08-14T22:50:07.035Z,3.55
2023-08-14T22:52:34.076Z,3.63
2023-08-14T22:55:01.044Z,4.00
2023-08-14T22:57:28.221Z,3.88
2023-08-14T22:59:55.356Z,3.97
2023-08-14T23:02:22.592Z,3.08
2023-08-14T23:04:49.726Z,3.58
2023-08-14T23:07:16.918Z,3.28
2023-08-14T23:09:44.070Z,3.70
2023-08-14T23:12:10.977Z,3.22
2023-08-14T23:14:37.943Z,3.60
2023-08-14T23:17:04.998Z,3.55
2023-08-14T23:19:31.932Z,3.42
2023-08-14T23:21:59.089Z,3.08
2023-08-14T23:24:26.019Z,2.65
2023-08-14T23:26:52.954Z,3.22
2023-08-14T23:29:19.930Z,3.00
2023-08-14T23:31:46.899Z,3.05
2023-08-14T23:34:13.831Z,2.88
2023-08-14T23:36:40.840Z,2.38
2023-08-14T23:39:07.893Z,2.42
2023-08-14T23:41:34.811Z,3.97
2023-08-14T23:44:02.122Z,2.55
2023-08-14T23:46:29.090Z,2.47
2023-08-14T23:48:56.283Z,1.40
2023-08-14T23:51:24.168Z,2.72
2023-08-14T23:53:51.131Z,2.63
2023-08-14T23:56:18.051Z,2.00
2023-08-14T23:58:45.041Z,2.05
